createdAt,value
2023-01-19T00:00:10.333Z,0.84
2023-01-19T00:01:10.317Z,0.76
2023-01-19T00:02:10.334Z,0.86
2023-01-19T00:03:10.352Z,0.82
2023-01-19T00:04:10.374Z,0.81
2023-01-19T00:05:10.393Z,0.72
2023-01-19T00:06:10.464Z,0.71
2023-01-19T00:07:10.435Z,0.79
2023-01-19T00:08:10.455Z,0.75
2023-01-19T00:09:10.498Z,0.78
2023-01-19T00:10:10.497Z,0.72
2023-01-19T00:11:10.520Z,0.72
2023-01-19T00:12:10.537Z,0.74
2023-01-19T00:13:10.583Z,0.76
2023-01-19T00:14:10.575Z,0.75
2023-01-19T00:15:10.599Z,0.75
2023-01-19T00:16:10.661Z,0.85
2023-01-19T00:17:10.641Z,0.89
2023-01-19T00:18:11.201Z,0.86
2023-01-19T00:19:10.687Z,0.82
2023-01-19T00:20:10.701Z,0.85
2023-01-19T00:21:10.720Z,0.84
2023-01-19T00:22:10.746Z,0.79
2023-01-19T00:23:10.766Z,0.76
2023-01-19T00:24:10.781Z,0.67
2023-01-19T00:25:10.821Z,0.78
2023-01-19T00:26:10.823Z,0.74
2023-01-19T00:27:10.850Z,0.66
2023-01-19T00:28:10.864Z,0.76
2023-01-19T00:29:10.884Z,0.71
2023-01-19T00:30:10.907Z,0.74
2023-01-19T00:31:10.991Z,0.78
2023-01-19T00:32:10.949Z,0.63
2023-01-19T00:33:10.971Z,0.66
2023-01-19T00:34:10.988Z,0.74
2023-01-19T00:35:11.023Z,0.82
2023-01-19T00:36:11.025Z,0.75
2023-01-19T00:37:11.060Z,0.79
2023-01-19T00:38:11.072Z,0.74
2023-01-19T00:39:11.088Z,0.85
2023-01-19T00:40:11.108Z,0.84
2023-01-19T00:41:11.157Z,0.85
2023-01-19T00:42:11.148Z,0.90
2023-01-19T00:43:11.174Z,0.90
2023-01-19T00:44:11.190Z,0.90
2023-01-19T00:45:11.222Z,0.92
2023-01-19T00:46:11.294Z,0.90
2023-01-19T00:47:11.252Z,0.94
2023-01-19T00:48:11.270Z,0.99
2023-01-19T00:49:11.303Z,0.99
2023-01-19T00:50:11.319Z,1.00
2023-01-19T00:51:11.341Z,0.97
2023-01-19T00:52:11.356Z,0.92
2023-01-19T00:53:11.375Z,1.03
2023-01-19T00:54:11.395Z,0.99
2023-01-19T00:55:11.418Z,1.03
2023-01-19T00:56:11.439Z,1.00
2023-01-19T00:57:11.478Z,0.99
2023-01-19T00:58:11.489Z,1.02
2023-01-19T00:59:11.497Z,1.02
2023-01-19T01:00:11.517Z,1.00
2023-01-19T01:01:11.632Z,1.14
2023-01-19T01:02:11.847Z,1.17
2023-01-19T01:03:11.674Z,1.08
2023-01-19T01:04:11.598Z,1.14
2023-01-19T01:05:11.619Z,1.04
2023-01-19T01:06:11.643Z,1.12
2023-01-19T01:07:11.660Z,1.10
2023-01-19T01:08:11.694Z,1.11
2023-01-19T01:09:11.784Z,1.04
2023-01-19T01:10:11.763Z,1.15
2023-01-19T01:11:11.744Z,1.14
2023-01-19T01:12:11.764Z,1.11
2023-01-19T01:13:20.714Z,1.17
2023-01-19T01:14:11.812Z,1.22
2023-01-19T01:15:11.825Z,1.20
2023-01-19T01:16:11.944Z,1.18
2023-01-19T01:17:11.867Z,1.22
2023-01-19T01:18:11.886Z,1.15
2023-01-19T01:19:11.915Z,1.24
2023-01-19T01:20:11.928Z,1.22
2023-01-19T01:21:11.951Z,1.28
2023-01-19T01:22:11.966Z,1.28
2023-01-19T01:23:11.990Z,1.35
2023-01-19T01:24:12.019Z,1.28
2023-01-19T01:25:12.037Z,1.35
2023-01-19T01:26:12.053Z,1.28
2023-01-19T01:27:12.078Z,1.21
2023-01-19T01:28:12.091Z,1.28
2023-01-19T01:29:12.133Z,1.32
2023-01-19T01:30:12.134Z,1.30
2023-01-19T01:31:12.267Z,1.24
2023-01-19T01:32:12.178Z,1.24
2023-01-19T01:33:12.196Z,1.28
2023-01-19T01:34:12.218Z,1.32
2023-01-19T01:35:12.237Z,1.22
2023-01-19T01:36:12.265Z,1.18
2023-01-19T01:37:12.282Z,1.21
2023-01-19T01:38:12.307Z,1.17
2023-01-19T01:39:12.319Z,1.20
2023-01-19T01:40:12.340Z,1.00
2023-01-19T01:41:12.361Z,1.04
2023-01-19T01:42:12.380Z,1.04
2023-01-19T01:43:12.401Z,1.03
2023-01-19T01:44:12.423Z,1.02
2023-01-19T01:45:12.465Z,0.99
2023-01-19T01:46:12.506Z,1.00
2023-01-19T01:47:12.494Z,0.92
2023-01-19T01:48:12.510Z,0.96
2023-01-19T01:49:12.527Z,0.89
2023-01-19T01:50:12.579Z,0.93
2023-01-19T01:51:12.574Z,0.97
2023-01-19T01:52:12.587Z,0.99
2023-01-19T01:53:12.890Z,1.00
2023-01-19T01:54:12.627Z,1.02
2023-01-19T01:55:12.683Z,1.07
2023-01-19T01:56:12.674Z,1.02
2023-01-19T01:57:12.690Z,1.11
2023-01-19T01:58:12.709Z,1.12
2023-01-19T01:59:12.733Z,1.18
2023-01-19T02:00:12.775Z,1.21
2023-01-19T02:01:12.873Z,1.26
2023-01-19T02:02:12.793Z,1.26
2023-01-19T02:03:12.885Z,1.30
2023-01-19T02:04:12.835Z,1.26
2023-01-19T02:05:12.856Z,1.29
2023-01-19T02:06:12.877Z,1.29
2023-01-19T02:07:12.907Z,1.24
2023-01-19T02:08:12.919Z,1.29
2023-01-19T02:09:12.949Z,1.29
2023-01-19T02:10:12.970Z,1.26
2023-01-19T02:11:12.984Z,1.38
2023-01-19T02:12:13.002Z,1.35
2023-01-19T02:13:13.025Z,1.28
2023-01-19T02:14:13.044Z,1.30
2023-01-19T02:15:13.067Z,1.29
2023-01-19T02:16:13.084Z,1.24
2023-01-19T02:17:13.127Z,1.18
2023-01-19T02:18:13.125Z,1.22
2023-01-19T02:19:13.149Z,1.18
2023-01-19T02:20:13.172Z,1.18
2023-01-19T02:21:13.194Z,1.20
2023-01-19T02:22:13.222Z,1.18
2023-01-19T02:23:13.230Z,1.20
2023-01-19T02:24:13.250Z,1.20
2023-01-19T02:25:13.275Z,1.17
2023-01-19T02:26:13.291Z,1.18
2023-01-19T02:27:13.324Z,1.18
2023-01-19T02:28:13.334Z,1.07
2023-01-19T02:29:13.357Z,1.12
2023-01-19T02:30:13.373Z,1.04
2023-01-19T02:31:13.403Z,1.04
2023-01-19T02:32:13.416Z,1.08
2023-01-19T02:33:13.461Z,1.07
2023-01-19T02:34:13.458Z,1.11
2023-01-19T02:35:13.526Z,1.08
2023-01-19T02:36:13.510Z,1.07
2023-01-19T02:37:13.523Z,1.00
2023-01-19T02:38:13.539Z,1.04
2023-01-19T02:39:13.569Z,1.03
2023-01-19T02:40:13.584Z,1.02
2023-01-19T02:41:13.616Z,1.02
2023-01-19T02:42:13.624Z,1.18
2023-01-19T02:43:13.649Z,1.18
2023-01-19T02:44:13.667Z,1.20
2023-01-19T02:45:13.686Z,1.30
2023-01-19T02:46:13.748Z,1.24
2023-01-19T02:47:13.727Z,1.28
2023-01-19T02:48:13.751Z,1.28
2023-01-19T02:49:13.788Z,1.35
2023-01-19T02:50:13.788Z,1.29
2023-01-19T02:51:13.812Z,1.24
2023-01-19T02:52:13.826Z,1.30
2023-01-19T02:53:13.850Z,1.26
2023-01-19T02:54:13.870Z,1.35
2023-01-19T02:55:13.892Z,1.33
2023-01-19T02:56:13.914Z,1.39
2023-01-19T02:57:13.934Z,1.35
2023-01-19T02:58:13.951Z,1.36
2023-01-19T02:59:13.986Z,1.46
2023-01-19T03:00:13.995Z,1.54
2023-01-19T03:01:14.145Z,1.51
2023-01-19T03:02:14.143Z,1.51
2023-01-19T03:03:14.056Z,1.56
2023-01-19T03:04:14.075Z,1.53
2023-01-19T03:05:14.125Z,1.54
2023-01-19T03:06:14.117Z,1.58
2023-01-19T03:07:14.138Z,1.65
2023-01-19T03:08:14.157Z,1.64
2023-01-19T03:09:14.179Z,1.75
2023-01-19T03:10:14.211Z,1.75
2023-01-19T03:11:14.221Z,1.76
2023-01-19T03:12:14.240Z,1.82
2023-01-19T03:13:14.272Z,1.89
2023-01-19T03:14:14.282Z,1.97
2023-01-19T03:15:14.305Z,1.94
2023-01-19T03:16:14.440Z,2.05
2023-01-19T03:17:14.342Z,2.08
2023-01-19T03:18:14.367Z,2.11
2023-01-19T03:19:14.385Z,2.13
2023-01-19T03:20:14.416Z,2.09
2023-01-19T03:21:14.592Z,2.09
2023-01-19T03:22:14.472Z,2.12
2023-01-19T03:23:14.468Z,2.11
2023-01-19T03:24:14.491Z,2.12
2023-01-19T03:25:14.508Z,2.15
2023-01-19T03:26:14.531Z,2.04
2023-01-19T03:27:14.552Z,2.16
2023-01-19T03:28:14.582Z,2.11
2023-01-19T03:29:14.593Z,2.06
2023-01-19T03:30:14.617Z,2.13
2023-01-19T03:31:14.660Z,2.04
2023-01-19T03:32:14.662Z,2.05
2023-01-19T03:33:14.692Z,2.02
2023-01-19T03:34:14.697Z,1.98
2023-01-19T03:35:14.724Z,2.09
2023-01-19T03:36:14.747Z,2.06
2023-01-19T03:37:14.786Z,2.13
2023-01-19T03:38:14.784Z,1.98
2023-01-19T03:39:14.803Z,2.11
2023-01-19T03:40:14.824Z,2.08
2023-01-19T03:41:14.843Z,2.13
2023-01-19T03:42:14.893Z,2.06
2023-01-19T03:43:14.901Z,2.12
2023-01-19T03:44:14.906Z,2.11
2023-01-19T03:45:14.933Z,2.15
2023-01-19T03:46:15.036Z,2.13
2023-01-19T03:47:14.966Z,2.12
2023-01-19T03:48:15.006Z,2.13
2023-01-19T03:49:15.007Z,2.16
2023-01-19T03:50:15.030Z,2.11
2023-01-19T03:51:15.050Z,2.13
2023-01-19T03:52:15.079Z,2.16
2023-01-19T03:53:15.200Z,2.18
2023-01-19T03:54:15.116Z,2.22
2023-01-19T03:55:15.135Z,2.29
2023-01-19T03:56:15.156Z,2.23
2023-01-19T03:57:15.175Z,2.34
2023-01-19T03:58:15.204Z,2.38
2023-01-19T03:59:15.221Z,2.31
2023-01-19T04:00:15.239Z,2.33
2023-01-19T04:01:15.362Z,2.42
2023-01-19T04:02:15.339Z,2.33
2023-01-19T04:03:15.306Z,2.41
2023-01-19T04:04:15.325Z,2.48
2023-01-19T04:05:15.359Z,2.41
2023-01-19T04:06:15.373Z,2.49
2023-01-19T04:07:15.384Z,2.49
2023-01-19T04:08:15.407Z,2.54
2023-01-19T04:09:15.445Z,2.55
2023-01-19T04:10:15.448Z,2.52
2023-01-19T04:11:15.475Z,2.55
2023-01-19T04:12:15.496Z,2.59
2023-01-19T04:13:15.515Z,2.60
2023-01-19T04:14:15.533Z,2.59
2023-01-19T04:15:15.554Z,2.66
2023-01-19T04:16:15.607Z,2.49
2023-01-19T04:17:15.598Z,2.60
2023-01-19T04:18:15.620Z,2.63
2023-01-19T04:19:15.639Z,2.58
2023-01-19T04:20:15.660Z,2.66
2023-01-19T04:21:15.837Z,2.60
2023-01-19T04:22:15.719Z,2.67
2023-01-19T04:23:15.729Z,2.63
2023-01-19T04:24:15.744Z,2.62
2023-01-19T04:25:15.787Z,2.63
2023-01-19T04:26:15.886Z,2.65
2023-01-19T04:27:15.808Z,2.69
2023-01-19T04:28:15.830Z,2.65
2023-01-19T04:29:15.851Z,2.66
2023-01-19T04:30:15.874Z,2.69
2023-01-19T04:31:15.915Z,2.73
2023-01-19T04:32:15.915Z,2.78
2023-01-19T04:33:15.935Z,2.69
2023-01-19T04:34:15.964Z,2.70
2023-01-19T04:35:15.977Z,2.76
2023-01-19T04:36:16.003Z,2.77
2023-01-19T04:37:16.119Z,2.76
2023-01-19T04:38:16.041Z,2.66
2023-01-19T04:39:16.062Z,2.78
2023-01-19T04:40:16.084Z,2.72
2023-01-19T04:41:16.139Z,2.85
2023-01-19T04:42:16.140Z,2.91
2023-01-19T04:43:16.160Z,2.84
2023-01-19T04:44:16.181Z,2.88
2023-01-19T04:45:16.189Z,2.87
2023-01-19T04:46:16.222Z,2.87
2023-01-19T04:47:16.236Z,2.91
2023-01-19T04:48:16.259Z,2.88
2023-01-19T04:49:16.283Z,2.91
2023-01-19T04:50:16.299Z,2.95
2023-01-19T04:51:16.326Z,2.91
2023-01-19T04:52:16.340Z,3.03
2023-01-19T04:53:16.364Z,3.03
2023-01-19T04:54:16.520Z,2.99
2023-01-19T04:55:16.406Z,2.98
2023-01-19T04:56:16.423Z,3.03
2023-01-19T04:57:16.468Z,3.03
2023-01-19T04:58:16.471Z,3.05
2023-01-19T04:59:16.541Z,3.06
2023-01-19T05:00:16.516Z,3.06
2023-01-19T05:01:16.618Z,3.03
2023-01-19T05:02:16.559Z,3.11
2023-01-19T05:03:16.674Z,3.19
2023-01-19T05:04:16.599Z,3.14
2023-01-19T05:05:16.627Z,3.08
2023-01-19T05:06:16.640Z,3.11
2023-01-19T05:07:16.662Z,3.13
2023-01-19T05:08:16.683Z,3.14
2023-01-19T05:09:16.707Z,3.26
2023-01-19T05:10:16.733Z,3.09
2023-01-19T05:11:16.750Z,3.23
2023-01-19T05:12:16.774Z,3.21
2023-01-19T05:13:16.812Z,3.21
2023-01-19T05:14:16.814Z,3.21
2023-01-19T05:15:16.836Z,3.23
2023-01-19T05:16:16.910Z,3.21
2023-01-19T05:17:16.877Z,3.19
2023-01-19T05:18:16.907Z,3.23
2023-01-19T05:19:16.919Z,3.14
2023-01-19T05:20:16.945Z,3.20
2023-01-19T05:21:16.961Z,3.17
2023-01-19T05:22:16.985Z,3.19
2023-01-19T05:23:17.007Z,3.19
2023-01-19T05:24:17.029Z,3.20
2023-01-19T05:25:17.063Z,3.16
2023-01-19T05:26:17.075Z,3.13
2023-01-19T05:27:17.091Z,3.08
2023-01-19T05:28:17.117Z,3.14
2023-01-19T05:29:17.157Z,3.09
2023-01-19T05:30:17.160Z,3.13
2023-01-19T05:31:18.791Z,3.19
2023-01-19T05:32:17.205Z,3.11
2023-01-19T05:33:17.223Z,3.16
2023-01-19T05:34:17.244Z,3.16
2023-01-19T05:35:20.151Z,3.16
2023-01-19T05:36:17.289Z,3.19
2023-01-19T05:37:17.307Z,3.17
2023-01-19T05:38:20.939Z,3.14
2023-01-19T05:39:17.354Z,3.17
2023-01-19T05:40:17.378Z,3.09
2023-01-19T05:41:17.394Z,3.17
2023-01-19T05:42:17.417Z,3.19
2023-01-19T05:43:17.438Z,3.11
2023-01-19T05:44:17.462Z,3.05
2023-01-19T05:45:17.505Z,2.99
2023-01-19T05:46:17.551Z,3.01
2023-01-19T05:47:17.523Z,2.90
2023-01-19T05:48:17.548Z,2.91
2023-01-19T05:49:17.589Z,2.88
2023-01-19T05:50:17.589Z,2.85
2023-01-19T05:51:17.612Z,2.91
2023-01-19T05:52:17.634Z,2.76
2023-01-19T05:53:17.653Z,2.78
2023-01-19T05:54:17.680Z,2.67
2023-01-19T05:55:17.698Z,2.65
2023-01-19T05:56:17.725Z,2.65
2023-01-19T05:57:17.742Z,2.60
2023-01-19T05:58:17.765Z,2.58
2023-01-19T05:59:17.782Z,2.55
2023-01-19T06:00:17.808Z,2.62
2023-01-19T06:01:17.871Z,2.55
2023-01-19T06:02:17.893Z,2.54
2023-01-19T06:03:18.090Z,2.62
2023-01-19T06:04:17.895Z,2.48
2023-01-19T06:05:17.916Z,2.48
2023-01-19T06:06:17.932Z,2.42
2023-01-19T06:07:17.954Z,2.34
2023-01-19T06:08:17.976Z,2.36
2023-01-19T06:09:18.023Z,2.41
2023-01-19T06:10:18.016Z,2.41
2023-01-19T06:11:18.036Z,2.31
2023-01-19T06:12:18.060Z,2.24
2023-01-19T06:13:18.104Z,2.20
2023-01-19T06:14:18.107Z,2.24
2023-01-19T06:15:18.122Z,2.22
2023-01-19T06:16:18.204Z,2.22
2023-01-19T06:17:18.187Z,2.24
2023-01-19T06:18:18.186Z,2.18
2023-01-19T06:19:18.216Z,2.24
2023-01-19T06:20:18.230Z,2.16
2023-01-19T06:21:18.247Z,2.16
2023-01-19T06:22:18.274Z,2.11
2023-01-19T06:23:18.291Z,2.15
2023-01-19T06:24:18.314Z,2.15
2023-01-19T06:25:18.331Z,2.20
2023-01-19T06:26:18.354Z,2.16
2023-01-19T06:27:18.376Z,2.15
2023-01-19T06:28:18.403Z,2.11
2023-01-19T06:29:18.423Z,2.05
2023-01-19T06:30:18.440Z,2.15
2023-01-19T06:31:18.510Z,2.15
2023-01-19T06:32:18.483Z,2.15
2023-01-19T06:33:18.519Z,2.12
2023-01-19T06:34:18.523Z,2.15
2023-01-19T06:35:18.543Z,2.12
2023-01-19T06:36:18.569Z,2.11
2023-01-19T06:37:18.596Z,2.12
2023-01-19T06:38:18.611Z,2.11
2023-01-19T06:39:18.628Z,2.12
2023-01-19T06:40:18.651Z,2.09
2023-01-19T06:41:18.667Z,2.12
2023-01-19T06:42:18.690Z,2.16
2023-01-19T06:43:18.713Z,2.12
2023-01-19T06:44:18.734Z,2.04
2023-01-19T06:45:18.762Z,2.08
2023-01-19T06:46:18.776Z,2.04
2023-01-19T06:47:18.811Z,2.05
2023-01-19T06:48:18.818Z,2.05
2023-01-19T06:49:18.861Z,2.05
2023-01-19T06:50:18.858Z,2.01
2023-01-19T06:51:18.885Z,2.08
2023-01-19T06:52:18.902Z,2.04
2023-01-19T06:53:18.919Z,2.05
2023-01-19T06:54:18.943Z,2.01
2023-01-19T06:55:18.963Z,2.06
2023-01-19T06:56:19.017Z,2.02
2023-01-19T06:57:19.022Z,2.05
2023-01-19T06:58:19.032Z,2.08
2023-01-19T06:59:19.049Z,2.06
2023-01-19T07:00:19.069Z,2.05
2023-01-19T07:01:19.232Z,2.08
2023-01-19T07:02:27.977Z,1.98
2023-01-19T07:03:19.225Z,2.01
2023-01-19T07:04:19.154Z,2.01
2023-01-19T07:05:19.195Z,2.05
2023-01-19T07:06:19.196Z,2.02
2023-01-19T07:07:19.218Z,2.05
2023-01-19T07:08:19.235Z,2.02
2023-01-19T07:09:19.255Z,2.06
2023-01-19T07:10:19.277Z,1.94
2023-01-19T07:11:25.713Z,2.04
2023-01-19T07:12:19.318Z,1.97
2023-01-19T07:13:19.365Z,1.94
2023-01-19T07:14:19.399Z,1.90
2023-01-19T07:15:19.382Z,1.98
2023-01-19T07:16:19.470Z,1.90
2023-01-19T07:17:19.454Z,1.98
2023-01-19T07:18:19.447Z,1.94
2023-01-19T07:19:19.461Z,2.02
2023-01-19T07:20:19.492Z,1.97
2023-01-19T07:21:19.537Z,2.04
2023-01-19T07:22:19.525Z,2.02
2023-01-19T07:23:19.550Z,1.94
2023-01-19T07:24:19.567Z,2.02
2023-01-19T07:25:19.588Z,2.04
2023-01-19T07:26:19.607Z,2.06
2023-01-19T07:27:19.628Z,2.04
2023-01-19T07:28:19.652Z,2.02
2023-01-19T07:29:19.669Z,2.01
2023-01-19T07:30:19.689Z,2.02
2023-01-19T07:31:19.815Z,2.01
2023-01-19T07:32:19.731Z,2.04
2023-01-19T07:33:19.756Z,2.04
2023-01-19T07:34:19.772Z,1.98
2023-01-19T07:35:19.803Z,2.02
2023-01-19T07:36:19.825Z,1.97
2023-01-19T07:37:19.864Z,1.92
2023-01-19T07:38:19.860Z,2.04
2023-01-19T07:39:19.883Z,2.09
2023-01-19T07:40:19.901Z,2.02
2023-01-19T07:41:19.923Z,2.04
2023-01-19T07:42:19.941Z,2.05
2023-01-19T07:43:19.979Z,2.08
2023-01-19T07:44:19.979Z,2.08
2023-01-19T07:45:20.002Z,2.06
2023-01-19T07:46:20.021Z,2.05
2023-01-19T07:47:20.044Z,2.05
2023-01-19T07:48:20.068Z,2.02
2023-01-19T07:49:20.086Z,2.12
2023-01-19T07:50:20.112Z,2.06
2023-01-19T07:51:20.141Z,2.02
2023-01-19T07:52:20.154Z,2.01
2023-01-19T07:53:20.190Z,2.04
2023-01-19T07:54:20.197Z,2.02
2023-01-19T07:55:20.209Z,2.05
2023-01-19T07:56:20.233Z,2.08
2023-01-19T07:57:20.251Z,1.94
2023-01-19T07:58:20.268Z,2.05
2023-01-19T07:59:20.293Z,2.06
2023-01-19T08:00:20.320Z,2.08
2023-01-19T08:01:20.442Z,2.12
2023-01-19T08:02:20.407Z,2.04
2023-01-19T08:03:20.379Z,2.05
2023-01-19T08:04:20.413Z,2.06
2023-01-19T08:05:20.425Z,2.05
2023-01-19T08:06:20.441Z,2.09
2023-01-19T08:07:20.463Z,2.06
2023-01-19T08:08:20.478Z,2.05
2023-01-19T08:09:20.522Z,2.13
2023-01-19T08:10:20.523Z,2.08
2023-01-19T08:11:20.543Z,2.11
2023-01-19T08:12:20.564Z,2.11
2023-01-19T08:13:20.736Z,2.18
2023-01-19T08:14:20.604Z,2.16
2023-01-19T08:15:20.629Z,2.26
2023-01-19T08:16:20.648Z,2.27
2023-01-19T08:17:20.668Z,2.33
2023-01-19T08:18:20.699Z,2.24
2023-01-19T08:19:20.709Z,2.18
2023-01-19T08:20:20.729Z,2.23
2023-01-19T08:21:20.757Z,2.34
2023-01-19T08:22:20.771Z,2.34
2023-01-19T08:23:20.794Z,2.40
2023-01-19T08:24:20.851Z,2.45
2023-01-19T08:25:20.851Z,2.45
2023-01-19T08:26:20.961Z,2.44
2023-01-19T08:27:20.879Z,2.42
2023-01-19T08:28:20.907Z,2.48
2023-01-19T08:29:20.918Z,2.45
2023-01-19T08:30:20.937Z,2.40
2023-01-19T08:31:24.409Z,2.47
2023-01-19T08:32:21.107Z,2.54
2023-01-19T08:33:21.005Z,2.51
2023-01-19T08:34:21.019Z,2.62
2023-01-19T08:35:21.047Z,2.55
2023-01-19T08:36:21.064Z,2.62
2023-01-19T08:37:21.138Z,2.58
2023-01-19T08:38:21.114Z,2.51
2023-01-19T08:39:21.154Z,2.48
2023-01-19T08:40:21.170Z,2.55
2023-01-19T08:41:21.197Z,2.58
2023-01-19T08:42:21.189Z,2.62
2023-01-19T08:43:21.212Z,2.60
2023-01-19T08:44:21.236Z,2.55
2023-01-19T08:45:21.262Z,2.58
2023-01-19T08:46:21.366Z,2.52
2023-01-19T08:47:21.337Z,2.55
2023-01-19T08:48:21.315Z,2.55
2023-01-19T08:49:21.336Z,2.58
2023-01-19T08:50:21.356Z,2.52
2023-01-19T08:51:21.381Z,2.54
2023-01-19T08:52:21.399Z,2.55
2023-01-19T08:53:21.424Z,2.55
2023-01-19T08:54:21.443Z,2.60
2023-01-19T08:55:21.477Z,2.59
2023-01-19T08:56:21.488Z,2.52
2023-01-19T08:57:21.531Z,2.65
2023-01-19T08:58:21.529Z,2.63
2023-01-19T08:59:21.549Z,2.63
2023-01-19T09:00:21.566Z,2.63
2023-01-19T09:01:21.695Z,2.60
2023-01-19T09:02:21.808Z,2.66
2023-01-19T09:03:21.724Z,2.63
2023-01-19T09:04:21.656Z,2.63
2023-01-19T09:05:21.679Z,2.60
2023-01-19T09:06:21.699Z,2.59
2023-01-19T09:07:21.750Z,2.59
2023-01-19T09:08:21.742Z,2.63
2023-01-19T09:09:21.770Z,2.66
2023-01-19T09:10:21.845Z,2.66
2023-01-19T09:11:21.807Z,2.76
2023-01-19T09:12:21.842Z,2.62
2023-01-19T09:13:21.882Z,2.70
2023-01-19T09:14:21.869Z,2.76
2023-01-19T09:15:21.896Z,2.67
2023-01-19T09:16:22.001Z,2.70
2023-01-19T09:17:21.941Z,2.76
2023-01-19T09:18:21.955Z,2.63
2023-01-19T09:19:21.980Z,2.66
2023-01-19T09:20:21.997Z,2.67
2023-01-19T09:21:22.023Z,2.73
2023-01-19T09:22:22.048Z,2.73
2023-01-19T09:23:22.065Z,2.65
2023-01-19T09:24:22.101Z,2.70
2023-01-19T09:25:22.125Z,2.67
2023-01-19T09:26:22.136Z,2.76
2023-01-19T09:27:22.151Z,2.69
2023-01-19T09:28:22.169Z,2.76
2023-01-19T09:29:22.208Z,2.78
2023-01-19T09:30:22.215Z,2.87
2023-01-19T09:31:22.380Z,2.83
2023-01-19T09:32:22.257Z,2.85
2023-01-19T09:33:22.277Z,2.84
2023-01-19T09:34:22.299Z,2.91
2023-01-19T09:35:22.359Z,2.88
2023-01-19T09:36:22.340Z,2.83
2023-01-19T09:37:22.365Z,2.80
2023-01-19T09:38:22.413Z,2.81
2023-01-19T09:39:22.411Z,2.84
2023-01-19T09:40:22.427Z,2.84
2023-01-19T09:41:22.549Z,2.85
2023-01-19T09:42:22.469Z,2.88
2023-01-19T09:43:22.494Z,2.81
2023-01-19T09:44:22.523Z,2.81
2023-01-19T09:45:22.568Z,2.87
2023-01-19T09:46:22.591Z,2.81
2023-01-19T09:47:22.582Z,2.91
2023-01-19T09:48:22.612Z,2.85
2023-01-19T09:49:22.629Z,2.91
2023-01-19T09:50:22.642Z,2.81
2023-01-19T09:51:22.667Z,2.83
2023-01-19T09:52:22.685Z,2.91
2023-01-19T09:53:22.724Z,2.87
2023-01-19T09:54:22.729Z,2.90
2023-01-19T09:55:22.760Z,2.90
2023-01-19T09:56:22.776Z,3.02
2023-01-19T09:57:22.809Z,3.02
2023-01-19T09:58:22.818Z,3.06
2023-01-19T09:59:22.842Z,3.09
2023-01-19T10:00:22.884Z,3.06
2023-01-19T10:01:23.082Z,2.99
2023-01-19T10:02:22.905Z,3.13
2023-01-19T10:03:23.077Z,3.13
2023-01-19T10:04:22.949Z,3.08
2023-01-19T10:05:22.970Z,3.17
2023-01-19T10:06:22.988Z,3.13
2023-01-19T10:07:23.012Z,3.17
2023-01-19T10:08:23.030Z,3.19
2023-01-19T10:09:23.057Z,3.21
2023-01-19T10:10:23.090Z,3.17
2023-01-19T10:11:23.104Z,3.29
2023-01-19T10:12:23.119Z,3.29
2023-01-19T10:13:23.142Z,3.21
2023-01-19T10:14:23.161Z,3.17
2023-01-19T10:15:23.185Z,3.32
2023-01-19T10:16:23.282Z,3.17
2023-01-19T10:17:23.257Z,3.17
2023-01-19T10:18:23.248Z,3.20
2023-01-19T10:19:23.273Z,3.26
2023-01-19T10:20:23.291Z,3.24
2023-01-19T10:21:23.318Z,3.17
2023-01-19T10:22:23.355Z,3.17
2023-01-19T10:23:23.365Z,3.13
2023-01-19T10:24:23.382Z,3.13
2023-01-19T10:25:23.464Z,3.09
2023-01-19T10:26:23.425Z,3.09
2023-01-19T10:27:23.449Z,3.17
2023-01-19T10:28:23.467Z,3.17
2023-01-19T10:29:23.495Z,3.14
2023-01-19T10:30:23.560Z,3.20
2023-01-19T10:31:23.676Z,3.19
2023-01-19T10:32:23.551Z,3.17
2023-01-19T10:33:23.629Z,3.09
2023-01-19T10:34:23.977Z,3.08
2023-01-19T10:35:23.628Z,3.09
2023-01-19T10:36:23.644Z,3.06
2023-01-19T10:37:23.667Z,3.06
2023-01-19T10:38:23.681Z,3.01
2023-01-19T10:39:23.707Z,3.03
2023-01-19T10:40:23.726Z,3.02
2023-01-19T10:41:23.746Z,3.01
2023-01-19T10:42:23.767Z,2.99
2023-01-19T10:43:23.805Z,3.08
2023-01-19T10:44:23.852Z,3.03
2023-01-19T10:45:24.034Z,3.03
2023-01-19T10:46:24.002Z,2.99
2023-01-19T10:47:23.951Z,2.99
2023-01-19T10:48:23.900Z,3.09
2023-01-19T10:49:23.961Z,3.09
2023-01-19T10:50:23.970Z,3.06
2023-01-19T10:51:23.995Z,3.09
2023-01-19T10:52:24.067Z,3.09
2023-01-19T10:53:24.046Z,3.13
2023-01-19T10:54:24.074Z,3.09
2023-01-19T10:55:24.054Z,3.20
2023-01-19T10:56:24.101Z,3.19
2023-01-19T10:57:24.121Z,3.21
2023-01-19T10:58:24.117Z,3.21
2023-01-19T10:59:24.166Z,3.35
2023-01-19T11:00:24.162Z,3.35
2023-01-19T11:01:24.332Z,3.32
2023-01-19T11:02:24.429Z,3.35
2023-01-19T11:03:24.361Z,3.39
2023-01-19T11:04:24.253Z,3.49
2023-01-19T11:05:24.298Z,3.53
2023-01-19T11:06:24.293Z,3.56
2023-01-19T11:07:24.321Z,3.58
2023-01-19T11:08:24.338Z,3.66
2023-01-19T11:09:24.358Z,3.61
2023-01-19T11:10:24.375Z,3.74
2023-01-19T11:11:24.406Z,3.86
2023-01-19T11:12:24.435Z,3.85
2023-01-19T11:13:24.445Z,3.92
2023-01-19T11:14:24.467Z,3.90
2023-01-19T11:15:24.512Z,3.97
2023-01-19T11:16:24.572Z,3.93
2023-01-19T11:17:24.543Z,4.04
2023-01-19T11:18:24.558Z,4.00
2023-01-19T11:19:24.580Z,4.08
2023-01-19T11:20:24.604Z,4.04
2023-01-19T11:21:25.898Z,4.02
2023-01-19T11:22:24.656Z,4.03
2023-01-19T11:23:24.680Z,4.07
2023-01-19T11:24:24.745Z,4.02
2023-01-19T11:25:24.720Z,4.04
2023-01-19T11:26:24.737Z,4.02
2023-01-19T11:27:24.758Z,4.07
2023-01-19T11:28:24.805Z,4.02
2023-01-19T11:29:24.802Z,4.08
2023-01-19T11:30:24.822Z,4.18
2023-01-19T11:31:24.920Z,4.14
2023-01-19T11:32:24.870Z,4.07
2023-01-19T11:33:24.891Z,4.08
2023-01-19T11:34:24.916Z,4.18
2023-01-19T11:35:24.938Z,4.24
2023-01-19T11:36:24.965Z,4.17
2023-01-19T11:37:25.002Z,4.28
2023-01-19T11:38:25.008Z,4.30
2023-01-19T11:39:25.034Z,4.32
2023-01-19T11:40:25.051Z,4.29
2023-01-19T11:41:25.072Z,4.29
2023-01-19T11:42:25.097Z,4.30
2023-01-19T11:43:25.126Z,4.26
2023-01-19T11:44:25.140Z,4.35
2023-01-19T11:45:25.169Z,4.38
2023-01-19T11:46:25.184Z,4.36
2023-01-19T11:47:25.208Z,4.28
2023-01-19T11:48:25.229Z,4.32
2023-01-19T11:49:25.257Z,4.35
2023-01-19T11:50:25.285Z,4.38
2023-01-19T11:51:25.301Z,4.39
2023-01-19T11:52:25.332Z,4.39
2023-01-19T11:53:25.462Z,4.28
2023-01-19T11:54:25.369Z,4.29
2023-01-19T11:55:25.388Z,4.24
2023-01-19T11:56:25.412Z,4.36
2023-01-19T11:57:25.432Z,4.38
2023-01-19T11:58:25.457Z,4.42
2023-01-19T11:59:25.489Z,4.42
2023-01-19T12:00:25.505Z,4.46
2023-01-19T12:01:25.708Z,4.44
2023-01-19T12:02:25.591Z,4.40
2023-01-19T12:03:25.637Z,4.36
2023-01-19T12:04:25.595Z,4.51
2023-01-19T12:05:25.616Z,4.48
2023-01-19T12:06:25.649Z,4.51
2023-01-19T12:07:25.661Z,4.53
2023-01-19T12:08:25.684Z,4.51
2023-01-19T12:09:25.744Z,4.61
2023-01-19T12:10:25.734Z,4.53
2023-01-19T12:11:25.752Z,4.60
2023-01-19T12:12:25.784Z,4.53
2023-01-19T12:13:25.795Z,4.60
2023-01-19T12:14:25.822Z,4.64
2023-01-19T12:15:25.851Z,4.68
2023-01-19T12:16:25.891Z,4.79
2023-01-19T12:17:25.887Z,4.90
2023-01-19T12:18:25.912Z,4.97
2023-01-19T12:19:25.933Z,4.97
2023-01-19T12:20:25.959Z,5.10
2023-01-19T12:21:25.983Z,5.15
2023-01-19T12:22:26.005Z,5.10
2023-01-19T12:23:26.036Z,5.31
2023-01-19T12:24:26.127Z,5.30
2023-01-19T12:25:26.105Z,5.39
2023-01-19T12:26:26.096Z,5.37
2023-01-19T12:27:26.148Z,5.39
2023-01-19T12:28:26.145Z,5.46
2023-01-19T12:29:26.164Z,5.45
2023-01-19T12:30:26.187Z,5.48
2023-01-19T12:31:26.383Z,5.42
2023-01-19T12:32:26.236Z,5.44
2023-01-19T12:33:26.257Z,5.33
2023-01-19T12:34:26.283Z,5.42
2023-01-19T12:35:26.302Z,5.41
2023-01-19T12:36:26.326Z,5.45
2023-01-19T12:37:26.348Z,5.44
2023-01-19T12:38:26.373Z,5.49
2023-01-19T12:39:26.414Z,5.52
2023-01-19T12:40:26.419Z,5.59
2023-01-19T12:41:26.498Z,5.59
2023-01-19T12:42:26.484Z,5.57
2023-01-19T12:43:26.487Z,5.62
2023-01-19T12:44:26.513Z,5.62
2023-01-19T12:45:26.535Z,5.51
2023-01-19T12:46:26.607Z,5.45
2023-01-19T12:47:26.581Z,5.41
2023-01-19T12:48:26.616Z,5.31
2023-01-19T12:49:26.628Z,5.15
2023-01-19T12:50:26.651Z,5.16
2023-01-19T12:51:26.673Z,5.10
2023-01-19T12:52:26.704Z,5.12
2023-01-19T12:53:26.720Z,5.09
2023-01-19T12:54:26.745Z,5.12
2023-01-19T12:55:26.769Z,5.09
2023-01-19T12:56:26.793Z,5.23
2023-01-19T12:57:26.835Z,5.18
2023-01-19T12:58:26.836Z,5.20
2023-01-19T12:59:26.860Z,5.18
2023-01-19T13:00:26.884Z,5.27
2023-01-19T13:01:27.203Z,5.23
2023-01-19T13:02:26.960Z,5.21
2023-01-19T13:03:26.954Z,5.20
2023-01-19T13:04:26.977Z,5.08
2023-01-19T13:05:26.998Z,5.15
2023-01-19T13:06:27.020Z,5.23
2023-01-19T13:07:27.047Z,5.18
2023-01-19T13:08:27.078Z,5.24
2023-01-19T13:09:27.090Z,5.21
2023-01-19T13:10:27.114Z,5.15
2023-01-19T13:11:31.318Z,5.13
2023-01-19T13:12:27.160Z,5.12
2023-01-19T13:13:27.209Z,5.26
2023-01-19T13:14:27.213Z,5.18
2023-01-19T13:15:27.284Z,5.24
2023-01-19T13:16:27.254Z,5.24
2023-01-19T13:17:27.278Z,5.27
2023-01-19T13:18:27.301Z,5.34